Time;durP1;ratioP1;P1;durP2;ratioP2;P2;SDS_P1;SDS_P2;PMS_P1;PMS_P2;Temp;Humidity;BMP_temperature;BMP_pressure;BME280_temperature;BME280_humidity;BME280_pressure;Samples;Min_cycle;Max_cycle;Signal;HPM_P1;HPM_P2
2023/06/01 00:01:33;;;;;;;;;;;;;;;12.32;100.00;102269.16;5003586;28;19999;-88
2023/06/01 00:03:58;;;;;;;;;;;;;;;12.15;100.00;102273.78;4980725;28;19958;-91
2023/06/01 00:06:25;;;;;;;;;;;;;;;12.18;100.00;102272.72;4982071;28;19922;-88
2023/06/01 00:08:51;;;;;;;;;;;;;;;12.17;100.00;102270.97;4990651;28;19978;-89
2023/06/01 00:11:16;;;;;;;;;;;;;;;11.96;100.00;102270.41;4986433;28;19926;-86
2023/06/01 00:13:41;;;;;;;;;;;;;;;11.95;100.00;102279.47;5002908;28;19921;-87
2023/06/01 00:16:06;;;;;;;;;;;;;;;11.95;100.00;102274.97;5010190;28;20271;-89
2023/06/01 00:18:32;;;;;;;;;;;;;;;11.83;100.00;102276.56;4986791;28;20338;-87
2023/06/01 00:20:57;;;;;;;;;;;;;;;11.75;100.00;102273.47;4987777;28;19921;-90
2023/06/01 00:23:22;;;;;;;;;;;;;;;11.64;100.00;102271.41;5006796;28;20435;-91
2023/06/01 00:25:48;;;;;;;;;;;;;;;11.64;100.00;102270.56;5005946;28;19932;-88
2023/06/01 00:28:13;;;;;;;;;;;;;;;11.64;100.00;102266.03;5006000;28;19922;-88
2023/06/01 00:30:38;;;;;;;;;;;;;;;11.56;100.00;102271.00;5005454;28;20831;-90
2023/06/01 00:33:03;;;;;;;;;;;;;;;11.38;100.00;102271.13;5003016;28;19925;-88
2023/06/01 00:35:29;;;;;;;;;;;;;;;11.35;100.00;102270.47;5007140;28;19957;-90
2023/06/01 00:37:54;;;;;;;;;;;;;;;11.39;100.00;102271.97;5005205;28;19972;-89
2023/06/01 00:40:19;;;;;;;;;;;;;;;11.42;100.00;102270.97;5011204;28;19925;-89
2023/06/01 00:42:44;;;;;;;;;;;;;;;11.44;100.00;102274.44;4991189;28;19922;-89
2023/06/01 00:45:10;;;;;;;;;;;;;;;11.33;100.00;102270.53;4994024;28;19925;-88
2023/06/01 00:47:37;;;;;;;;;;;;;;;11.19;100.00;102270.47;5013035;28;19921;-88
2023/06/01 00:50:03;;;;;;;;;;;;;;;11.28;100.00;102269.06;5004767;28;19976;-88
2023/06/01 00:52:28;;;;;;;;;;;;;;;11.29;100.00;102274.34;5001838;28;20288;-88
2023/06/01 00:54:53;;;;;;;;;;;;;;;11.24;100.00;102274.63;4990785;28;19963;-88
2023/06/01 00:57:20;;;;;;;;;;;;;;;11.21;100.00;102273.94;4985548;28;19951;-88
2023/06/01 00:59:46;;;;;;;;;;;;;;;11.17;100.00;102273.22;5004394;28;19921;-88
2023/06/01 01:02:15;;;;;;;;;;;;;;;11.12;100.00;102274.47;4988286;28;19987;-88
2023/06/01 01:04:40;;;;;;;;;;;;;;;11.11;100.00;102279.00;4990532;28;19925;-87
2023/06/01 01:07:09;;;;;;;;;;;;;;;10.90;100.00;102281.91;4990403;28;19943;-88
2023/06/01 01:09:37;;;;;;;;;;;;;;;10.87;100.00;102282.09;4993235;28;20359;-88
2023/06/01 01:12:23;;;;;;;;;;;;;;;10.90;100.00;102281.91;5005528;28;20399;-87
2023/06/01 01:15:00;;;;;;;;;;;;;;;10.87;100.00;102289.28;5010321;28;19921;-87
2023/06/01 01:17:25;;;;;;;;;;;;;;;10.81;100.00;102290.50;5005355;28;19926;-87
2023/06/01 01:19:58;;;;;;;;;;;;;;;10.70;100.00;102293.78;5003529;28;20514;-87
2023/06/01 01:22:39;;;;;;;;;;;;;;;10.71;100.00;102297.34;4983340;28;20356;-89
2023/06/01 01:25:20;;;;;;;;;;;;;;;10.67;100.00;102293.06;4999057;28;19928;-88
2023/06/01 01:27:51;;;;;;;;;;;;;;;10.54;100.00;102290.19;5026119;22;20011;-88
2023/06/01 01:30:17;;;;;;;;;;;;;;;10.60;100.00;102287.19;5044422;28;19924;-88
2023/06/01 01:32:42;;;;;;;;;;;;;;;10.55;100.00;102286.56;5023295;28;19920;-88
2023/06/01 01:35:08;;;;;;;;;;;;;;;10.63;100.00;102287.03;5023923;28;19920;-88
2023/06/01 01:37:33;;;;;;;;;;;;;;;10.54;100.00;102288.41;5040937;28;20340;-89
2023/06/01 01:39:59;;;;;;;;;;;;;;;10.51;100.00;102283.19;5041580;28;19925;-88
2023/06/01 01:42:24;;;;;;;;;;;;;;;10.55;100.00;102287.44;5024593;28;20267;-88
2023/06/01 01:44:50;;;;;;;;;;;;;;;10.53;100.00;102288.47;5027172;28;19920;-88
2023/06/01 01:47:18;;;;;;;;;;;;;;;10.47;100.00;102286.97;5043107;28;19931;-87
2023/06/01 01:49:44;;;;;;;;;;;;;;;10.48;100.00;102281.53;5055142;28;19920;-89
2023/06/01 01:52:12;;;;;;;;;;;;;;;10.62;100.00;102287.97;5040717;28;19927;-88
2023/06/01 01:54:39;;;;;;;;;;;;;;;10.52;100.00;102298.34;5057160;28;19925;-89
2023/06/01 01:57:05;;;;;;;;;;;;;;;10.65;100.00;102301.22;5019556;28;19975;-87
2023/06/01 01:59:30;;;;;;;;;;;;;;;10.67;100.00;102296.66;5038458;28;20024;-88
2023/06/01 02:01:55;;;;;;;;;;;;;;;10.72;100.00;102297.25;5023485;28;21907;-88
2023/06/01 02:04:21;;;;;;;;;;;;;;;10.73;100.00;102296.28;5040985;28;20019;-89
2023/06/01 02:06:46;;;;;;;;;;;;;;;10.74;100.00;102298.03;5042201;28;19938;-89
2023/06/01 02:09:11;;;;;;;;;;;;;;;10.67;100.00;102293.06;5043602;28;20019;-90
2023/06/01 02:11:36;;;;;;;;;;;;;;;10.72;100.00;102297.25;5021953;28;20016;-90
2023/06/01 02:14:02;;;;;;;;;;;;;;;10.65;100.00;102299.41;5053730;28;20011;-89
2023/06/01 02:16:27;;;;;;;;;;;;;;;10.57;100.00;102292.72;5042550;28;19928;-92
2023/06/01 02:18:53;;;;;;;;;;;;;;;10.65;100.00;102295.88;5059192;28;19920;-90
2023/06/01 02:21:18;;;;;;;;;;;;;;;10.72;100.00;102289.22;5042245;28;19983;-89
2023/06/01 02:23:43;;;;;;;;;;;;;;;10.74;100.00;102287.28;5025878;28;19921;-88
2023/06/01 02:26:09;;;;;;;;;;;;;;;10.69;100.00;102283.13;5057060;28;19924;-88
2023/06/01 02:28:36;;;;;;;;;;;;;;;10.64;100.00;102289.59;5024480;28;19927;-89
2023/06/01 02:31:01;;;;;;;;;;;;;;;10.73;100.00;102290.91;5029120;28;19924;-88
2023/06/01 02:33:26;;;;;;;;;;;;;;;10.70;100.00;102283.06;5024767;28;19997;-87
2023/06/01 02:35:51;;;;;;;;;;;;;;;10.62;100.00;102285.28;5026097;28;20294;-87
2023/06/01 02:38:17;;;;;;;;;;;;;;;10.60;100.00;102282.66;5037452;28;19932;-88
2023/06/01 02:40:42;;;;;;;;;;;;;;;10.64;100.00;102281.53;5033998;28;20034;-87
2023/06/01 02:43:07;;;;;;;;;;;;;;;10.72;100.00;102280.25;5026740;28;20379;-87
2023/06/01 02:45:33;;;;;;;;;;;;;;;10.67;100.00;102276.97;5029873;28;19924;-89
2023/06/01 02:47:58;;;;;;;;;;;;;;;10.69;100.00;102291.19;5028303;28;19977;-89
2023/06/01 02:50:23;;;;;;;;;;;;;;;10.68;100.00;102293.00;5028636;28;19971;-88
2023/06/01 02:52:48;;;;;;;;;;;;;;;10.67;100.00;102288.59;5044868;28;19963;-91
2023/06/01 02:55:13;;;;;;;;;;;;;;;10.57;100.00;102282.88;5024853;28;20422;-91
2023/06/01 02:57:39;;;;;;;;;;;;;;;10.71;100.00;102284.78;5046005;28;20381;-90
2023/06/01 03:00:15;;;;;;;;;;;;;;;10.67;100.00;102282.34;5043781;28;20353;-89
2023/06/01 03:02:40;;;;;;;;;;;;;;;10.67;100.00;102275.16;5043303;28;19928;-89
2023/06/01 03:05:06;;;;;;;;;;;;;;;10.70;100.00;102279.47;5040290;28;19916;-90
2023/06/01 03:07:31;;;;;;;;;;;;;;;10.72;100.00;102280.25;5059910;28;20421;-88
2023/06/01 03:09:56;;;;;;;;;;;;;;;10.73;100.00;102290.06;5042756;28;19927;-88
2023/06/01 03:12:21;;;;;;;;;;;;;;;10.81;100.00;102285.13;5036229;28;19943;-88
2023/06/01 03:14:47;;;;;;;;;;;;;;;10.89;100.00;102282.00;5021162;28;20366;-88
2023/06/01 03:17:12;;;;;;;;;;;;;;;10.88;100.00;102281.13;5047159;28;20377;-89
2023/06/01 03:19:37;;;;;;;;;;;;;;;10.86;100.00;102288.41;5045827;28;19924;-88
2023/06/01 03:22:02;;;;;;;;;;;;;;;10.83;100.00;102282.34;5023485;28;19921;-89
2023/06/01 03:24:28;;;;;;;;;;;;;;;10.79;100.00;102285.19;5040698;28;19929;-88
2023/06/01 03:26:54;;;;;;;;;;;;;;;10.84;100.00;102284.97;5061755;28;20030;-90
2023/06/01 03:29:20;;;;;;;;;;;;;;;10.74;100.00;102283.75;5042663;28;19999;-88
2023/06/01 03:31:45;;;;;;;;;;;;;;;10.73;100.00;102280.16;5038591;28;19924;-89
2023/06/01 03:34:11;;;;;;;;;;;;;;;10.71;100.00;102279.41;5055487;28;19921;-88
2023/06/01 03:36:39;;;;;;;;;;;;;;;10.77;100.00;102272.81;5057197;28;19920;-88
2023/06/01 03:39:08;;;;;;;;;;;;;;;10.77;100.00;102270.13;5059793;28;19920;-88
2023/06/01 03:41:34;;;;;;;;;;;;;;;10.77;100.00;102272.81;5062414;28;19943;-90
2023/06/01 03:43:59;;;;;;;;;;;;;;;10.88;100.00;102274.91;5031683;28;20476;-88
2023/06/01 03:46:25;;;;;;;;;;;;;;;10.85;100.00;102272.38;5061413;28;19923;-85
2023/06/01 03:48:51;;;;;;;;;;;;;;;10.91;100.00;102272.91;5043240;28;20287;-89
2023/06/01 03:51:16;;;;;;;;;;;;;;;10.92;100.00;102269.25;5026708;28;19921;-90
2023/06/01 03:53:42;;;;;;;;;;;;;;;10.89;100.00;102280.19;5023486;28;19950;-87
2023/06/01 03:56:07;;;;;;;;;;;;;;;10.87;100.00;102282.09;5043938;28;19969;-89
2023/06/01 03:58:32;;;;;;;;;;;;;;;10.73;100.00;102285.53;5026470;28;19924;-91
2023/06/01 04:00:57;;;;;;;;;;;;;;;10.71;100.00;102286.59;5061003;28;19923;-89
2023/06/01 04:03:23;;;;;;;;;;;;;;;10.64;100.00;102283.38;5042875;28;19963;-88
2023/06/01 04:05:50;;;;;;;;;;;;;;;10.74;100.00;102289.09;5061052;28;20015;-88
2023/06/01 04:08:15;;;;;;;;;;;;;;;10.77;100.00;102286.25;5061113;28;20571;-87
2023/06/01 04:10:40;;;;;;;;;;;;;;;10.70;100.00;102280.38;5043257;28;19931;-90
2023/06/01 04:13:06;;;;;;;;;;;;;;;10.79;100.00;102279.84;5040375;28;19996;-89
2023/06/01 04:15:32;;;;;;;;;;;;;;;10.88;100.00;102280.28;5041157;28;19928;-88
2023/06/01 04:17:58;;;;;;;;;;;;;;;10.91;100.00;102283.66;5026345;28;19962;-89
2023/06/01 04:20:23;;;;;;;;;;;;;;;10.97;100.00;102281.56;5027267;28;20699;-89
2023/06/01 04:22:48;;;;;;;;;;;;;;;10.94;100.00;102285.31;5038831;28;20366;-85
2023/06/01 04:25:17;;;;;;;;;;;;;;;11.00;100.00;102282.25;5040753;28;20362;-89
2023/06/01 04:27:44;;;;;;;;;;;;;;;10.98;100.00;102283.31;5016241;28;19979;-91
2023/06/01 04:30:10;;;;;;;;;;;;;;;10.97;100.00;102289.63;5025621;28;20317;-90
2023/06/01 04:32:37;;;;;;;;;;;;;;;10.93;100.00;102283.59;5022059;28;19916;-90
2023/06/01 04:35:05;;;;;;;;;;;;;;;10.95;100.00;102289.75;5027305;28;20781;-89
2023/06/01 04:37:35;;;;;;;;;;;;;;;10.93;100.00;102286.28;5025065;28;19928;-91
2023/06/01 04:40:09;;;;;;;;;;;;;;;10.92;100.00;102287.22;5023692;28;20351;-88
2023/06/01 04:42:41;;;;;;;;;;;;;;;10.98;100.00;102291.38;5052079;28;20003;-91
2023/06/01 04:45:07;;;;;;;;;;;;;;;11.07;100.00;102294.41;5049330;28;19917;-90
2023/06/01 04:47:37;;;;;;;;;;;;;;;11.09;100.00;102294.34;5031497;28;19998;-88
2023/06/01 04:50:04;;;;;;;;;;;;;;;11.19;100.00;102294.66;5032018;28;19997;-91
2023/06/01 04:52:29;;;;;;;;;;;;;;;11.19;100.00;102295.53;5049861;28;19921;-90
2023/06/01 04:54:54;;;;;;;;;;;;;;;11.19;100.00;102294.66;5046714;28;19926;-90
2023/06/01 04:57:20;;;;;;;;;;;;;;;11.13;100.00;102293.19;5024185;28;20035;-91
2023/06/01 04:59:45;;;;;;;;;;;;;;;11.09;100.00;102283.59;5028513;28;20305;-89
2023/06/01 05:02:10;;;;;;;;;;;;;;;11.08;100.00;102296.13;5026268;28;19916;-89
2023/06/01 05:04:36;;;;;;;;;;;;;;;11.14;100.00;102294.06;5042312;28;19932;-88
2023/06/01 05:07:01;;;;;;;;;;;;;;;11.33;100.00;102288.50;5031687;28;19981;-88
2023/06/01 05:09:26;;;;;;;;;;;;;;;11.37;100.00;102301.66;5041760;28;19921;-88
2023/06/01 05:11:52;;;;;;;;;;;;;;;11.39;100.00;102296.19;5022606;28;19975;-89
2023/06/01 05:14:17;;;;;;;;;;;;;;;11.42;100.00;102292.47;5043378;28;19920;-88
2023/06/01 05:16:43;;;;;;;;;;;;;;;11.45;100.00;102295.84;5057085;28;19951;-90
2023/06/01 05:19:09;;;;;;;;;;;;;;;11.42;100.00;102295.16;5021122;28;19928;-90
2023/06/01 05:21:34;;;;;;;;;;;;;;;11.50;100.00;102288.38;5028384;28;19946;-89
2023/06/01 05:24:00;;;;;;;;;;;;;;;11.45;100.00;102284.22;5047869;28;20462;-88
2023/06/01 05:26:25;;;;;;;;;;;;;;;11.59;100.00;102284.25;5042673;28;20378;-89
2023/06/01 05:28:50;;;;;;;;;;;;;;;11.79;100.00;102290.28;5013186;28;19921;-88
2023/06/01 05:31:16;;;;;;;;;;;;;;;11.76;100.00;102277.88;5025113;28;19967;-90
2023/06/01 05:33:41;;;;;;;;;;;;;;;11.79;100.00;102285.78;5007090;28;19928;-89
2023/06/01 05:36:06;;;;;;;;;;;;;;;11.87;100.00;102285.31;5011021;28;20339;-89
2023/06/01 05:38:32;;;;;;;;;;;;;;;11.96;100.00;102290.16;5009281;28;19931;-88
2023/06/01 05:40:57;;;;;;;;;;;;;;;12.03;100.00;102287.97;5039248;28;20367;-89
2023/06/01 05:43:22;;;;;;;;;;;;;;;12.08;100.00;102290.38;5010814;28;19925;-88
2023/06/01 05:45:48;;;;;;;;;;;;;;;12.03;100.00;102290.66;5009552;28;19917;-89
2023/06/01 05:48:14;;;;;;;;;;;;;;;11.97;100.00;102291.88;5011799;28;19924;-89
2023/06/01 05:50:40;;;;;;;;;;;;;;;12.01;100.00;102295.28;5025227;28;19990;-88
2023/06/01 05:53:06;;;;;;;;;;;;;;;12.08;100.00;102296.63;5026617;28;19920;-88
2023/06/01 05:55:32;;;;;;;;;;;;;;;12.18;100.00;102290.69;5008992;28;20260;-88
2023/06/01 05:57:57;;;;;;;;;;;;;;;12.15;100.00;102298.00;5008442;28;20446;-89
2023/06/01 06:00:23;;;;;;;;;;;;;;;12.18;100.00;102305.00;5014639;28;19966;-89
2023/06/01 06:02:48;;;;;;;;;;;;;;;12.15;100.00;102303.38;5033236;28;19925;-88
2023/06/01 06:05:14;;;;;;;;;;;;;;;12.19;100.00;102303.16;5025961;28;19924;-90
2023/06/01 06:07:39;;;;;;;;;;;;;;;12.19;100.00;102301.38;5004686;28;19932;-89
2023/06/01 06:10:05;;;;;;;;;;;;;;;12.22;100.00;102297.59;5027414;28;19928;-90
2023/06/01 06:12:30;;;;;;;;;;;;;;;12.25;100.00;102308.19;5018771;28;20619;-91
2023/06/01 06:14:55;;;;;;;;;;;;;;;12.44;100.00;102300.72;5033503;28;20019;-91
2023/06/01 06:17:21;;;;;;;;;;;;;;;12.53;100.00;102296.59;5027436;28;20047;-88
2023/06/01 06:19:47;;;;;;;;;;;;;;;12.64;100.00;102300.41;5014608;28;19963;-89
2023/06/01 06:22:12;;;;;;;;;;;;;;;12.79;100.00;102303.94;5021808;28;20375;-89
2023/06/01 06:24:38;;;;;;;;;;;;;;;12.70;100.00;102297.31;5046250;28;19927;-89
2023/06/01 06:27:03;;;;;;;;;;;;;;;12.67;100.00;102300.22;5010315;28;20050;-86
2023/06/01 06:29:29;;;;;;;;;;;;;;;12.77;100.00;102306.75;5033007;28;19925;-89
2023/06/01 06:31:54;;;;;;;;;;;;;;;12.91;100.00;102300.47;5014046;28;19924;-87
2023/06/01 06:34:20;;;;;;;;;;;;;;;13.03;100.00;102293.44;5020690;28;19981;-87
2023/06/01 06:36:46;;;;;;;;;;;;;;;13.22;100.00;102295.78;5035167;28;19978;-87
2023/06/01 06:39:21;;;;;;;;;;;;;;;13.31;100.00;102300.56;5049279;28;19990;-71
2023/06/01 06:41:46;;;;;;;;;;;;;;;13.59;100.00;102297.88;5042971;28;20004;-71
2023/06/01 06:44:11;;;;;;;;;;;;;;;13.57;100.00;102297.97;5021513;28;19921;-70
2023/06/01 06:46:36;;;;;;;;;;;;;;;13.70;100.00;102292.59;5029283;28;19944;-69
2023/06/01 06:49:01;;;;;;;;;;;;;;;13.42;100.00;102297.16;5031106;28;19948;-69
2023/06/01 06:51:27;;;;;;;;;;;;;;;13.35;100.00;102296.69;5026843;28;19928;-70
2023/06/01 06:53:52;;;;;;;;;;;;;;;13.03;100.00;102299.66;5030882;28;19921;-70
2023/06/01 06:56:17;;;;;;;;;;;;;;;13.11;100.00;102304.56;5031939;28;20351;-71
2023/06/01 06:58:43;;;;;;;;;;;;;;;13.10;100.00;102301.97;5026413;28;20410;-71
2023/06/01 07:01:08;;;;;;;;;;;;;;;13.29;100.00;102307.03;5032928;28;20629;-71
2023/06/01 07:03:33;;;;;;;;;;;;;;;13.62;100.00;102309.34;5027856;28;20283;-71
2023/06/01 07:05:59;;;;;;;;;;;;;;;13.86;100.00;102316.72;5034077;28;20000;-70
2023/06/01 07:08:24;;;;;;;;;;;;;;;13.81;100.00;102310.78;5032223;28;19925;-71
2023/06/01 07:10:50;;;;;;;;;;;;;;;13.82;100.00;102312.50;5046207;28;19924;-70
2023/06/01 07:13:15;;;;;;;;;;;;;;;13.76;100.00;102312.94;5027627;28;20020;-69
2023/06/01 07:15:40;;;;;;;;;;;;;;;13.64;100.00;102299.31;5026323;28;20379;-70
2023/06/01 07:18:06;;;;;;;;;;;;;;;13.67;100.00;102306.31;5031329;28;19925;-71
2023/06/01 07:20:31;;;;;;;;;;;;;;;13.81;100.00;102308.06;5031983;28;19932;-70
2023/06/01 07:22:56;;;;;;;;;;;;;;;13.33;100.00;102304.03;5028369;28;19921;-70
2023/06/01 07:25:22;;;;;;;;;;;;;;;13.58;100.00;102301.56;5030132;28;19932;-70
2023/06/01 07:27:48;;;;;;;;;;;;;;;13.71;100.00;102305.13;5039831;28;19920;-71
2023/06/01 07:30:13;;;;;;;;;;;;;;;13.94;100.00;102305.41;5028217;28;19931;-69
2023/06/01 07:32:38;;;;;;;;;;;;;;;14.13;100.00;102301.44;5027527;28;19921;-71
2023/06/01 07:35:06;;;;;;;;;;;;;;;14.22;100.00;102304.34;5029935;28;19924;-71
2023/06/01 07:37:31;;;;;;;;;;;;;;;14.28;100.00;102304.91;5030614;28;19925;-71
2023/06/01 07:39:56;;;;;;;;;;;;;;;14.24;100.00;102298.84;5026719;28;20399;-71
2023/06/01 07:42:22;;;;;;;;;;;;;;;14.34;100.00;102299.03;5027162;28;19960;-71
2023/06/01 07:44:47;;;;;;;;;;;;;;;14.15;100.00;102302.19;5027099;28;20280;-70
2023/06/01 07:47:12;;;;;;;;;;;;;;;14.24;100.00;102297.00;5030273;28;19921;-71
2023/06/01 07:49:37;;;;;;;;;;;;;;;14.36;100.00;102292.56;5021300;28;19971;-70
2023/06/01 07:52:04;;;;;;;;;;;;;;;14.49;100.00;102303.38;5031381;28;20166;-68
2023/06/01 07:54:29;;;;;;;;;;;;;;;14.69;100.00;102304.69;5018979;28;19917;-72
2023/06/01 07:56:56;;;;;;;;;;;;;;;14.86;100.00;102299.88;5018384;28;19917;-70
2023/06/01 07:59:22;;;;;;;;;;;;;;;15.02;100.00;102291.50;5016812;28;19928;-71
2023/06/01 08:01:51;;;;;;;;;;;;;;;15.20;100.00;102293.81;5009267;28;19921;-71
2023/06/01 08:04:18;;;;;;;;;;;;;;;15.34;100.00;102298.19;5011637;28;20019;-71
2023/06/01 08:06:43;;;;;;;;;;;;;;;15.27;100.00;102303.22;5011913;28;20456;-71
2023/06/01 08:09:09;;;;;;;;;;;;;;;15.24;100.00;102293.47;5011583;28;19921;-72
2023/06/01 08:11:35;;;;;;;;;;;;;;;15.27;100.00;102295.94;5011990;28;19921;-71
2023/06/01 08:14:02;;;;;;;;;;;;;;;15.50;100.00;102292.50;5007730;28;19961;-71
2023/06/01 08:16:28;;;;;;;;;;;;;;;15.53;100.00;102290.41;5015935;28;20370;-68
2023/06/01 08:18:53;;;;;;;;;;;;;;;15.34;100.00;102290.06;5010813;28;20319;-70
2023/06/01 08:21:18;;;;;;;;;;;;;;;15.38;100.00;102294.28;5015608;28;19917;-68
2023/06/01 08:23:44;;;;;;;;;;;;;;;15.54;100.00;102292.13;5011051;28;19926;-68
2023/06/01 08:26:09;;;;;;;;;;;;;;;15.46;100.00;102286.47;5006447;28;19921;-70
2023/06/01 08:28:35;;;;;;;;;;;;;;;15.42;100.00;102284.97;5030751;28;20360;-70
2023/06/01 08:31:00;;;;;;;;;;;;;;;15.53;100.00;102285.00;5012006;28;20016;-71
2023/06/01 08:33:25;;;;;;;;;;;;;;;15.62;100.00;102278.03;5005081;28;19957;-70
2023/06/01 08:35:51;;;;;;;;;;;;;;;15.58;100.00;102279.25;5010998;28;19932;-70
2023/06/01 08:38:16;;;;;;;;;;;;;;;15.78;100.00;102269.56;5012541;28;19924;-71
2023/06/01 08:40:41;;;;;;;;;;;;;;;15.82;100.00;102276.47;5011097;28;19920;-70
2023/06/01 08:43:33;;;;;;;;;;;;;;;15.84;100.00;102276.38;4998179;28;19990;-69
2023/06/01 08:45:58;;;;;;;;;;;;;;;15.86;97.47;102272.59;5014758;28;20571;-70
2023/06/01 08:48:23;;;;;;;;;;;;;;;16.04;100.00;102272.13;5030851;28;20375;-72
2023/06/01 08:50:50;;;;;;;;;;;;;;;16.19;100.00;102270.03;5015384;28;20595;-72
2023/06/01 08:53:18;;;;;;;;;;;;;;;16.40;99.38;102272.91;5028188;28;19922;-69
2023/06/01 08:55:43;;;;;;;;;;;;;;;15.98;86.04;102269.91;5029066;28;19922;-70
2023/06/01 08:58:09;;;;;;;;;;;;;;;16.29;94.43;102262.03;5011864;28;19925;-69
2023/06/01 09:00:34;;;;;;;;;;;;;;;16.40;99.34;102266.63;4995932;28;19975;-72
2023/06/01 09:02:59;;;;;;;;;;;;;;;16.61;92.10;102262.19;5025769;28;20347;-71
2023/06/01 09:05:25;;;;;;;;;;;;;;;16.58;85.27;102257.00;5016972;28;19925;-71
2023/06/01 09:07:50;;;;;;;;;;;;;;;16.78;89.54;102251.78;5014286;28;19932;-70
2023/06/01 09:10:15;;;;;;;;;;;;;;;16.78;92.24;102252.69;5012823;28;20367;-70
2023/06/01 09:12:50;;;;;;;;;;;;;;;16.85;95.30;102227.72;5009718;28;19921;-70
2023/06/01 09:15:16;;;;;;;;;;;;;;;17.13;87.21;102247.16;5028678;28;19921;-70
2023/06/01 09:17:42;;;;;;;;;;;;;;;17.43;83.30;102245.56;5002492;28;19933;-70
2023/06/01 09:20:11;;;;;;;;;;;;;;;17.53;83.51;102241.94;5016052;28;19925;-68
2023/06/01 09:22:39;;;;;;;;;;;;;;;17.23;81.20;102238.13;5011516;28;19921;-70
2023/06/01 09:25:05;;;;;;;;;;;;;;;17.05;75.38;102243.28;5013718;28;20358;-70
2023/06/01 09:27:30;;;;;;;;;;;;;;;17.12;84.74;102240.03;5013689;28;20389;-72
2023/06/01 09:29:56;;;;;;;;;;;;;;;17.52;83.64;102244.81;5031806;28;20036;-71
2023/06/01 09:32:21;;;;;;;;;;;;;;;17.38;76.84;102238.69;5001892;28;20023;-70
2023/06/01 09:34:46;;;;;;;;;;;;;;;17.48;86.16;102235.19;5013435;28;19921;-71
2023/06/01 09:37:13;;;;;;;;;;;;;;;17.90;87.17;102234.34;5031598;28;19925;-72
2023/06/01 09:39:38;;;;;;;;;;;;;;;18.03;77.85;102235.00;5030980;28;19924;-69
2023/06/01 09:42:06;;;;;;;;;;;;;;;18.18;85.05;102229.22;5016116;28;19917;-70
2023/06/01 09:44:32;;;;;;;;;;;;;;;18.34;79.04;102223.28;5010343;28;19927;-70
2023/06/01 09:46:59;;;;;;;;;;;;;;;18.37;72.92;102223.84;5013954;28;20303;-71
2023/06/01 09:49:31;;;;;;;;;;;;;;;18.53;80.54;102219.78;5011189;28;19921;-70
2023/06/01 09:52:05;;;;;;;;;;;;;;;18.74;76.23;102216.94;5000480;28;20413;-70
2023/06/01 09:54:37;;;;;;;;;;;;;;;18.87;79.46;102227.56;5016236;28;19920;-72
2023/06/01 09:57:03;;;;;;;;;;;;;;;18.94;69.15;102212.41;5007077;28;20435;-69
2023/06/01 09:59:28;;;;;;;;;;;;;;;19.05;72.11;102216.03;5009059;28;19933;-69
2023/06/01 10:01:54;;;;;;;;;;;;;;;19.28;74.38;102220.19;5008493;28;19920;-69
2023/06/01 10:04:24;;;;;;;;;;;;;;;19.15;65.54;102208.72;5027359;28;20269;-70
2023/06/01 10:06:52;;;;;;;;;;;;;;;19.08;66.69;102216.59;5011509;28;19921;-71
2023/06/01 10:09:19;;;;;;;;;;;;;;;19.29;76.13;102210.16;5013980;28;19965;-71
2023/06/01 10:11:45;;;;;;;;;;;;;;;19.68;69.88;102211.97;5012962;28;20019;-70
2023/06/01 10:14:10;;;;;;;;;;;;;;;19.61;62.83;102208.97;5008711;28;20459;-71
2023/06/01 10:16:36;;;;;;;;;;;;;;;19.98;70.81;102219.13;5029690;28;20526;-70
2023/06/01 10:19:01;;;;;;;;;;;;;;;20.17;62.19;102222.78;5020035;28;20340;-71
2023/06/01 10:21:26;;;;;;;;;;;;;;;20.21;62.60;102216.88;5014480;28;19921;-69
2023/06/01 10:23:51;;;;;;;;;;;;;;;20.47;63.01;102210.72;5024437;28;19917;-69
2023/06/01 10:26:17;;;;;;;;;;;;;;;20.93;57.92;102199.84;5020407;28;19928;-72
2023/06/01 10:28:43;;;;;;;;;;;;;;;20.90;60.22;102197.41;5013581;28;19921;-68
2023/06/01 10:31:44;;;;;;;;;;;;;;;21.20;56.59;102194.44;5012853;28;20410;-70
2023/06/01 10:34:10;;;;;;;;;;;;;;;21.49;56.98;102191.44;4974040;28;20007;-71
2023/06/01 10:36:51;;;;;;;;;;;;;;;21.60;58.57;102197.66;5024107;28;19925;-71
2023/06/01 10:39:22;;;;;;;;;;;;;;;21.78;54.19;102201.25;5012216;28;20422;-71
2023/06/01 10:41:47;;;;;;;;;;;;;;;21.92;55.80;102193.47;5014933;28;19956;-70
2023/06/01 10:44:33;;;;;;;;;;;;;;;22.21;58.18;102198.59;4996173;28;20343;-68
2023/06/01 10:46:58;;;;;;;;;;;;;;;22.11;54.63;102195.09;5018185;28;20405;-70
2023/06/01 10:49:23;;;;;;;;;;;;;;;22.35;51.12;102190.75;5000494;28;19917;-71
2023/06/01 10:51:48;;;;;;;;;;;;;;;22.80;54.56;102196.91;5014684;28;19964;-70
2023/06/01 10:54:24;;;;;;;;;;;;;;;22.73;48.21;102197.56;4998892;28;20043;-68
2023/06/01 10:57:05;;;;;;;;;;;;;;;22.95;49.04;102184.25;5015699;28;20055;-69
2023/06/01 10:59:30;;;;;;;;;;;;;;;23.42;51.63;102185.53;5029077;28;20387;-70
2023/06/01 11:01:55;;;;;;;;;;;;;;;23.96;55.20;102187.66;5026172;28;19974;-69
2023/06/01 11:04:34;;;;;;;;;;;;;;;24.29;48.41;102180.34;5014876;28;19991;-71
2023/06/01 11:07:11;;;;;;;;;;;;;;;24.30;47.58;102177.44;5029560;28;19932;-71
2023/06/01 11:09:44;;;;;;;;;;;;;;;24.25;46.21;102174.38;5023544;28;20030;-69
2023/06/01 11:12:09;;;;;;;;;;;;;;;24.71;47.70;102166.25;5028969;28;20335;-71
2023/06/01 11:14:34;;;;;;;;;;;;;;;24.46;50.58;102175.63;5015369;28;19917;-71
2023/06/01 11:17:35;;;;;;;;;;;;;;;23.91;45.23;102170.88;5017910;28;20298;-70
2023/06/01 11:20:01;;;;;;;;;;;;;;;24.32;46.54;102158.91;5033990;28;20219;-70
2023/06/01 11:22:28;;;;;;;;;;;;;;;24.88;45.47;102157.91;5011456;28;20422;-70
2023/06/01 11:24:53;;;;;;;;;;;;;;;25.68;44.99;102165.81;5010352;28;20367;-71
2023/06/01 11:27:18;;;;;;;;;;;;;;;25.92;43.64;102161.91;5035883;28;19917;-71
2023/06/01 11:29:48;;;;;;;;;;;;;;;25.92;43.59;102163.84;5016457;28;19971;-70
2023/06/01 11:32:13;;;;;;;;;;;;;;;25.79;43.82;102157.09;5000023;28;19964;-69
2023/06/01 11:34:41;;;;;;;;;;;;;;;25.99;43.19;102156.50;5004877;28;20032;-72
2023/06/01 11:37:12;;;;;;;;;;;;;;;26.45;41.19;102148.03;5026130;28;19925;-70
2023/06/01 11:39:37;;;;;;;;;;;;;;;26.64;38.69;102157.53;5015679;28;19921;-69
2023/06/01 11:42:16;;;;;;;;;;;;;;;26.78;40.28;102154.94;5026305;28;19928;-68
2023/06/01 11:44:41;;;;;;;;;;;;;;;27.26;40.98;102151.59;5027664;28;19987;-69
2023/06/01 11:47:07;;;;;;;;;;;;;;;27.41;42.02;102146.00;5014034;28;19925;-69
2023/06/01 11:49:44;;;;;;;;;;;;;;;26.93;38.82;102152.16;5008946;28;20137;-70
2023/06/01 11:52:09;;;;;;;;;;;;;;;26.92;37.29;102139.44;5015744;28;20018;-70
2023/06/01 11:54:35;;;;;;;;;;;;;;;27.49;41.78;102145.00;5016112;28;20023;-71
2023/06/01 11:57:01;;;;;;;;;;;;;;;27.69;38.51;102136.84;5025105;28;19929;-70
2023/06/01 11:59:28;;;;;;;;;;;;;;;28.18;39.98;102143.28;5025379;28;20049;-71
2023/06/01 12:01:53;;;;;;;;;;;;;;;27.83;41.17;102133.13;5017145;28;19968;-71
2023/06/01 12:04:19;;;;;;;;;;;;;;;27.82;39.19;102133.31;5015651;28;20371;-71
2023/06/01 12:06:45;;;;;;;;;;;;;;;27.14;42.34;102134.75;5018942;28;20368;-71
2023/06/01 12:09:11;;;;;;;;;;;;;;;27.90;40.99;102130.41;5013779;28;19951;-69
2023/06/01 12:11:37;;;;;;;;;;;;;;;28.55;36.07;102131.94;5011485;28;19985;-70
2023/06/01 12:14:05;;;;;;;;;;;;;;;29.08;36.89;102128.44;5032137;28;19937;-69
2023/06/01 12:16:49;;;;;;;;;;;;;;;29.10;34.82;102123.53;5006300;28;20079;-70
2023/06/01 12:19:15;;;;;;;;;;;;;;;29.14;39.12;102127.56;5008127;28;19929;-71
2023/06/01 12:21:46;;;;;;;;;;;;;;;29.42;37.60;102131.19;5012800;28;19974;-68
2023/06/01 12:24:12;;;;;;;;;;;;;;;29.28;34.88;102128.38;5010106;28;19929;-70
2023/06/01 12:26:37;;;;;;;;;;;;;;;29.40;37.82;102125.84;5017905;28;19998;-70
2023/06/01 12:29:02;;;;;;;;;;;;;;;29.08;37.37;102124.78;5015986;28;20070;-72